sensor_id;sensor_type;location;lat;lon;timestamp;P1;durP1;ratioP1;P2;durP2;ratioP2
35028;SDS011;35394;54.282;10.070;2023-12-22T00:00:17;15.00;;;3.73;;
35028;SDS011;35394;54.282;10.070;2023-12-22T00:00:47;14.35;;;3.60;;
35028;SDS011;35394;54.282;10.070;2023-12-22T00:01:18;16.73;;;3.60;;
35028;SDS011;35394;54.282;10.070;2023-12-22T00:01:49;14.75;;;4.10;;
35028;SDS011;35394;54.282;10.070;2023-12-22T00:02:20;14.00;;;3.72;;
35028;SDS011;35394;54.282;10.070;2023-12-22T00:02:50;16.53;;;3.97;;
35028;SDS011;35394;54.282;10.070;2023-12-22T00:03:21;15.73;;;3.73;;
35028;SDS011;35394;54.282;10.070;2023-12-22T00:03:52;14.00;;;3.63;;
35028;SDS011;35394;54.282;10.070;2023-12-22T00:04:22;11.67;;;3.20;;
35028;SDS011;35394;54.282;10.070;2023-12-22T00:04:53;16.43;;;3.90;;
35028;SDS011;35394;54.282;10.070;2023-12-22T00:05:24;14.88;;;3.80;;
35028;SDS011;35394;54.282;10.070;2023-12-22T00:05:54;16.58;;;3.80;;
35028;SDS011;35394;54.282;10.070;2023-12-22T00:06:25;13.67;;;3.80;;
35028;SDS011;35394;54.282;10.070;2023-12-22T00:07:00;16.75;;;4.00;;
35028;SDS011;35394;54.282;10.070;2023-12-22T00:07:31;13.30;;;3.83;;
35028;SDS011;35394;54.282;10.070;2023-12-22T00:08:01;17.92;;;4.30;;
35028;SDS011;35394;54.282;10.070;2023-12-22T00:08:32;16.40;;;3.80;;
35028;SDS011;35394;54.282;10.070;2023-12-22T00:09:03;14.67;;;3.87;;
35028;SDS011;35394;54.282;10.070;2023-12-22T00:09:34;15.35;;;4.05;;
35028;SDS011;35394;54.282;10.070;2023-12-22T00:10:04;15.70;;;3.95;;
35028;SDS011;35394;54.282;10.070;2023-12-22T00:10:36;14.15;;;3.95;;
35028;SDS011;35394;54.282;10.070;2023-12-22T00:11:06;15.63;;;3.83;;
35028;SDS011;35394;54.282;10.070;2023-12-22T00:11:39;14.60;;;3.78;;
35028;SDS011;35394;54.282;10.070;2023-12-22T00:12:10;12.10;;;3.30;;
35028;SDS011;35394;54.282;10.070;2023-12-22T00:12:40;13.73;;;3.55;;
35028;SDS011;35394;54.282;10.070;2023-12-22T00:13:11;13.82;;;3.33;;
35028;SDS011;35394;54.282;10.070;2023-12-22T00:13:44;17.50;;;3.63;;
35028;SDS011;35394;54.282;10.070;2023-12-22T00:14:15;14.52;;;3.55;;
35028;SDS011;35394;54.282;10.070;2023-12-22T00:14:46;13.73;;;3.40;;
35028;SDS011;35394;54.282;10.070;2023-12-22T00:15:16;16.40;;;3.70;;
35028;SDS011;35394;54.282;10.070;2023-12-22T00:15:47;14.15;;;3.55;;
35028;SDS011;35394;54.282;10.070;2023-12-22T00:16:20;14.95;;;3.55;;
35028;SDS011;35394;54.282;10.070;2023-12-22T00:16:51;11.57;;;3.40;;
35028;SDS011;35394;54.282;10.070;2023-12-22T00:17:21;12.10;;;3.50;;
35028;SDS011;35394;54.282;10.070;2023-12-22T00:17:52;15.07;;;3.60;;
35028;SDS011;35394;54.282;10.070;2023-12-22T00:18:22;15.27;;;3.70;;
35028;SDS011;35394;54.282;10.070;2023-12-22T00:18:53;17.38;;;3.90;;
35028;SDS011;35394;54.282;10.070;2023-12-22T00:19:24;13.98;;;3.80;;
35028;SDS011;35394;54.282;10.070;2023-12-22T00:19:55;16.33;;;3.87;;
35028;SDS011;35394;54.282;10.070;2023-12-22T00:20:28;13.63;;;3.67;;
35028;SDS011;35394;54.282;10.070;2023-12-22T00:20:59;13.77;;;3.50;;
35028;SDS011;35394;54.282;10.070;2023-12-22T00:21:29;11.93;;;3.40;;
35028;SDS011;35394;54.282;10.070;2023-12-22T00:22:01;14.85;;;3.53;;
35028;SDS011;35394;54.282;10.070;2023-12-22T00:22:33;13.68;;;3.78;;
35028;SDS011;35394;54.282;10.070;2023-12-22T00:23:04;15.32;;;3.83;;
35028;SDS011;35394;54.282;10.070;2023-12-22T00:23:34;13.23;;;3.83;;
35028;SDS011;35394;54.282;10.070;2023-12-22T00:24:05;15.57;;;3.70;;
35028;SDS011;35394;54.282;10.070;2023-12-22T00:24:36;13.77;;;3.53;;
35028;SDS011;35394;54.282;10.070;2023-12-22T00:25:07;15.67;;;3.60;;
35028;SDS011;35394;54.282;10.070;2023-12-22T00:25:39;13.57;;;3.42;;
35028;SDS011;35394;54.282;10.070;2023-12-22T00:26:10;11.63;;;3.22;;
35028;SDS011;35394;54.282;10.070;2023-12-22T00:26:40;12.70;;;3.40;;
35028;SDS011;35394;54.282;10.070;2023-12-22T00:27:11;13.90;;;3.70;;
35028;SDS011;35394;54.282;10.070;2023-12-22T00:27:41;16.27;;;3.83;;
35028;SDS011;35394;54.282;10.070;2023-12-22T00:28:12;13.40;;;3.53;;
35028;SDS011;35394;54.282;10.070;2023-12-22T00:28:46;14.48;;;3.20;;
35028;SDS011;35394;54.282;10.070;2023-12-22T00:29:16;13.68;;;3.10;;
35028;SDS011;35394;54.282;10.070;2023-12-22T00:29:47;14.48;;;3.70;;
35028;SDS011;35394;54.282;10.070;2023-12-22T00:30:18;15.10;;;3.80;;
35028;SDS011;35394;54.282;10.070;2023-12-22T00:30:48;15.10;;;3.80;;
35028;SDS011;35394;54.282;10.070;2023-12-22T00:31:19;14.37;;;3.77;;
35028;SDS011;35394;54.282;10.070;2023-12-22T00:31:49;12.30;;;3.30;;
35028;SDS011;35394;54.282;10.070;2023-12-22T00:32:20;13.65;;;3.75;;
35028;SDS011;35394;54.282;10.070;2023-12-22T00:32:50;16.77;;;3.50;;
35028;SDS011;35394;54.282;10.070;2023-12-22T00:33:21;13.38;;;3.65;;
35028;SDS011;35394;54.282;10.070;2023-12-22T00:33:51;15.45;;;3.50;;
35028;SDS011;35394;54.282;10.070;2023-12-22T00:34:22;11.90;;;3.40;;
35028;SDS011;35394;54.282;10.070;2023-12-22T00:34:53;14.55;;;3.50;;
35028;SDS011;35394;54.282;10.070;2023-12-22T00:35:23;13.60;;;3.57;;
35028;SDS011;35394;54.282;10.070;2023-12-22T00:35:54;12.75;;;3.15;;
35028;SDS011;35394;54.282;10.070;2023-12-22T00:36:24;14.93;;;3.42;;
35028;SDS011;35394;54.282;10.070;2023-12-22T00:36:55;13.23;;;3.57;;
35028;SDS011;35394;54.282;10.070;2023-12-22T00:37:25;16.38;;;3.80;;
35028;SDS011;35394;54.282;10.070;2023-12-22T00:37:56;14.50;;;3.13;;
35028;SDS011;35394;54.282;10.070;2023-12-22T00:38:27;15.53;;;3.50;;
35028;SDS011;35394;54.282;10.070;2023-12-22T00:38:57;12.13;;;3.42;;
35028;SDS011;35394;54.282;10.070;2023-12-22T00:39:28;11.43;;;3.50;;
35028;SDS011;35394;54.282;10.070;2023-12-22T00:39:58;12.73;;;3.33;;
35028;SDS011;35394;54.282;10.070;2023-12-22T00:40:29;12.95;;;3.58;;
35028;SDS011;35394;54.282;10.070;2023-12-22T00:40:59;10.47;;;2.90;;
35028;SDS011;35394;54.282;10.070;2023-12-22T00:41:30;15.25;;;3.50;;
35028;SDS011;35394;54.282;10.070;2023-12-22T00:42:01;11.93;;;3.30;;
35028;SDS011;35394;54.282;10.070;2023-12-22T00:42:33;12.80;;;3.50;;
35028;SDS011;35394;54.282;10.070;2023-12-22T00:43:04;17.70;;;3.75;;
35028;SDS011;35394;54.282;10.070;2023-12-22T00:43:34;12.37;;;3.40;;
35028;SDS011;35394;54.282;10.070;2023-12-22T00:44:05;14.10;;;3.50;;
35028;SDS011;35394;54.282;10.070;2023-12-22T00:44:36;16.52;;;3.90;;
35028;SDS011;35394;54.282;10.070;2023-12-22T00:45:06;11.33;;;3.50;;
35028;SDS011;35394;54.282;10.070;2023-12-22T00:45:37;12.77;;;3.65;;
35028;SDS011;35394;54.282;10.070;2023-12-22T00:46:08;12.65;;;3.25;;
35028;SDS011;35394;54.282;10.070;2023-12-22T00:46:38;14.00;;;3.55;;
35028;SDS011;35394;54.282;10.070;2023-12-22T00:47:09;11.83;;;3.50;;
35028;SDS011;35394;54.282;10.070;2023-12-22T00:47:40;13.52;;;3.85;;
35028;SDS011;35394;54.282;10.070;2023-12-22T00:48:11;12.27;;;3.65;;
35028;SDS011;35394;54.282;10.070;2023-12-22T00:48:41;15.05;;;3.60;;
35028;SDS011;35394;54.282;10.070;2023-12-22T00:49:12;15.10;;;3.90;;
35028;SDS011;35394;54.282;10.070;2023-12-22T00:49:42;14.02;;;3.47;;
35028;SDS011;35394;54.282;10.070;2023-12-22T00:50:13;12.00;;;3.30;;
35028;SDS011;35394;54.282;10.070;2023-12-22T00:50:44;12.20;;;3.27;;
35028;SDS011;35394;54.282;10.070;2023-12-22T00:51:14;10.55;;;2.88;;
35028;SDS011;35394;54.282;10.070;2023-12-22T00:51:46;13.93;;;3.40;;
35028;SDS011;35394;54.282;10.070;2023-12-22T00:52:19;12.23;;;3.40;;
35028;SDS011;35394;54.282;10.070;2023-12-22T00:52:50;16.75;;;3.78;;
35028;SDS011;35394;54.282;10.070;2023-12-22T00:53:20;9.33;;;3.20;;
35028;SDS011;35394;54.282;10.070;2023-12-22T00:53:51;12.43;;;3.67;;
35028;SDS011;35394;54.282;10.070;2023-12-22T00:54:21;13.65;;;3.72;;
35028;SDS011;35394;54.282;10.070;2023-12-22T00:54:52;13.03;;;3.40;;
35028;SDS011;35394;54.282;10.070;2023-12-22T00:55:23;14.15;;;3.15;;
35028;SDS011;35394;54.282;10.070;2023-12-22T00:55:53;12.00;;;3.20;;
35028;SDS011;35394;54.282;10.070;2023-12-22T00:56:24;12.00;;;3.20;;
35028;SDS011;35394;54.282;10.070;2023-12-22T00:56:54;12.13;;;3.20;;
35028;SDS011;35394;54.282;10.070;2023-12-22T00:57:25;14.43;;;3.30;;
35028;SDS011;35394;54.282;10.070;2023-12-22T00:57:55;14.57;;;3.30;;
35028;SDS011;35394;54.282;10.070;2023-12-22T00:58:26;12.90;;;3.03;;
35028;SDS011;35394;54.282;10.070;2023-12-22T00:58:56;14.32;;;3.65;;
35028;SDS011;35394;54.282;10.070;2023-12-22T00:59:27;13.02;;;3.38;;
35028;SDS011;35394;54.282;10.070;2023-12-22T00:59:58;11.20;;;3.50;;
35028;SDS011;35394;54.282;10.070;2023-12-22T01:00:28;12.27;;;3.20;;
35028;SDS011;35394;54.282;10.070;2023-12-22T01:00:59;12.67;;;3.30;;
35028;SDS011;35394;54.282;10.070;2023-12-22T01:01:29;14.60;;;3.33;;
35028;SDS011;35394;54.282;10.070;2023-12-22T01:02:00;12.82;;;3.42;;
35028;SDS011;35394;54.282;10.070;2023-12-22T01:02:31;13.10;;;3.15;;
35028;SDS011;35394;54.282;10.070;2023-12-22T01:03:01;13.40;;;3.27;;
35028;SDS011;35394;54.282;10.070;2023-12-22T01:03:32;13.57;;;3.30;;
35028;SDS011;35394;54.282;10.070;2023-12-22T01:04:03;12.23;;;3.20;;
35028;SDS011;35394;54.282;10.070;2023-12-22T01:04:34;13.48;;;3.42;;
35028;SDS011;35394;54.282;10.070;2023-12-22T01:05:04;9.83;;;2.83;;
35028;SDS011;35394;54.282;10.070;2023-12-22T01:05:35;11.38;;;3.08;;
35028;SDS011;35394;54.282;10.070;2023-12-22T01:06:06;10.60;;;3.13;;
35028;SDS011;35394;54.282;10.070;2023-12-22T01:06:37;11.50;;;3.10;;
35028;SDS011;35394;54.282;10.070;2023-12-22T01:07:08;13.20;;;3.25;;
35028;SDS011;35394;54.282;10.070;2023-12-22T01:07:39;16.98;;;3.67;;
35028;SDS011;35394;54.282;10.070;2023-12-22T01:08:10;12.33;;;3.30;;
35028;SDS011;35394;54.282;10.070;2023-12-22T01:08:41;12.40;;;3.40;;
35028;SDS011;35394;54.282;10.070;2023-12-22T01:09:11;14.57;;;3.67;;
35028;SDS011;35394;54.282;10.070;2023-12-22T01:09:42;13.97;;;3.60;;
35028;SDS011;35394;54.282;10.070;2023-12-22T01:10:13;16.20;;;4.35;;
35028;SDS011;35394;54.282;10.070;2023-12-22T01:10:43;16.50;;;3.93;;
35028;SDS011;35394;54.282;10.070;2023-12-22T01:11:17;13.40;;;3.13;;
35028;SDS011;35394;54.282;10.070;2023-12-22T01:11:48;14.07;;;3.40;;
35028;SDS011;35394;54.282;10.070;2023-12-22T01:12:18;15.43;;;3.58;;
35028;SDS011;35394;54.282;10.070;2023-12-22T01:12:49;12.38;;;3.20;;
35028;SDS011;35394;54.282;10.070;2023-12-22T01:13:19;13.00;;;3.20;;
35028;SDS011;35394;54.282;10.070;2023-12-22T01:13:50;19.55;;;3.95;;
35028;SDS011;35394;54.282;10.070;2023-12-22T01:14:20;12.77;;;3.27;;
35028;SDS011;35394;54.282;10.070;2023-12-22T01:14:51;16.50;;;3.55;;
35028;SDS011;35394;54.282;10.070;2023-12-22T01:15:21;13.85;;;3.35;;
35028;SDS011;35394;54.282;10.070;2023-12-22T01:15:52;13.32;;;3.55;;
35028;SDS011;35394;54.282;10.070;2023-12-22T01:16:23;13.90;;;3.53;;
35028;SDS011;35394;54.282;10.070;2023-12-22T01:16:54;12.95;;;3.20;;
35028;SDS011;35394;54.282;10.070;2023-12-22T01:17:24;11.95;;;3.35;;
35028;SDS011;35394;54.282;10.070;2023-12-22T01:17:55;10.23;;;3.30;;
35028;SDS011;35394;54.282;10.070;2023-12-22T01:18:25;10.68;;;3.25;;
35028;SDS011;35394;54.282;10.070;2023-12-22T01:18:59;16.08;;;3.60;;
35028;SDS011;35394;54.282;10.070;2023-12-22T01:19:29;12.07;;;3.28;;
35028;SDS011;35394;54.282;10.070;2023-12-22T01:20:00;18.07;;;3.77;;
35028;SDS011;35394;54.282;10.070;2023-12-22T01:20:30;15.95;;;3.83;;
35028;SDS011;35394;54.282;10.070;2023-12-22T01:21:01;14.88;;;3.67;;
35028;SDS011;35394;54.282;10.070;2023-12-22T01:21:32;15.80;;;3.85;;
35028;SDS011;35394;54.282;10.070;2023-12-22T01:22:02;18.53;;;4.10;;
35028;SDS011;35394;54.282;10.070;2023-12-22T01:22:33;17.63;;;4.00;;
35028;SDS011;35394;54.282;10.070;2023-12-22T01:23:08;14.50;;;3.55;;
35028;SDS011;35394;54.282;10.070;2023-12-22T01:23:38;17.07;;;3.47;;
35028;SDS011;35394;54.282;10.070;2023-12-22T01:24:09;16.35;;;3.70;;
35028;SDS011;35394;54.282;10.070;2023-12-22T01:24:40;14.00;;;3.50;;
35028;SDS011;35394;54.282;10.070;2023-12-22T01:25:13;13.75;;;3.40;;
35028;SDS011;35394;54.282;10.070;2023-12-22T01:25:43;14.80;;;3.45;;
35028;SDS011;35394;54.282;10.070;2023-12-22T01:26:14;12.43;;;3.70;;
35028;SDS011;35394;54.282;10.070;2023-12-22T01:26:45;14.40;;;3.42;;
35028;SDS011;35394;54.282;10.070;2023-12-22T01:27:15;12.65;;;3.50;;
35028;SDS011;35394;54.282;10.070;2023-12-22T01:27:46;15.50;;;4.10;;
35028;SDS011;35394;54.282;10.070;2023-12-22T01:28:18;20.02;;;3.95;;
35028;SDS011;35394;54.282;10.070;2023-12-22T01:28:48;15.23;;;3.72;;
35028;SDS011;35394;54.282;10.070;2023-12-22T01:29:19;16.35;;;3.85;;
35028;SDS011;35394;54.282;10.070;2023-12-22T01:29:49;12.80;;;3.40;;
35028;SDS011;35394;54.282;10.070;2023-12-22T01:30:20;16.92;;;3.90;;
35028;SDS011;35394;54.282;10.070;2023-12-22T01:30:51;17.57;;;3.80;;
35028;SDS011;35394;54.282;10.070;2023-12-22T01:31:21;14.05;;;3.42;;
35028;SDS011;35394;54.282;10.070;2023-12-22T01:31:52;18.02;;;4.30;;
35028;SDS011;35394;54.282;10.070;2023-12-22T01:32:22;15.03;;;3.73;;
35028;SDS011;35394;54.282;10.070;2023-12-22T01:32:53;18.15;;;3.85;;
35028;SDS011;35394;54.282;10.070;2023-12-22T01:33:23;14.80;;;4.10;;
35028;SDS011;35394;54.282;10.070;2023-12-22T01:33:54;16.93;;;3.97;;
35028;SDS011;35394;54.282;10.070;2023-12-22T01:34:25;19.23;;;3.83;;
35028;SDS011;35394;54.282;10.070;2023-12-22T01:34:55;15.73;;;4.00;;
35028;SDS011;35394;54.282;10.070;2023-12-22T01:35:26;17.95;;;4.30;;
35028;SDS011;35394;54.282;10.070;2023-12-22T01:35:57;17.30;;;4.05;;
35028;SDS011;35394;54.282;10.070;2023-12-22T01:36:28;17.70;;;4.03;;
35028;SDS011;35394;54.282;10.070;2023-12-22T01:36:59;14.63;;;4.03;;
35028;SDS011;35394;54.282;10.070;2023-12-22T01:37:29;19.02;;;4.43;;
35028;SDS011;35394;54.282;10.070;2023-12-22T01:38:00;16.33;;;3.78;;
35028;SDS011;35394;54.282;10.070;2023-12-22T01:38:31;16.53;;;3.80;;
35028;SDS011;35394;54.282;10.070;2023-12-22T01:39:01;15.50;;;4.00;;
35028;SDS011;35394;54.282;10.070;2023-12-22T01:39:32;14.23;;;3.80;;
35028;SDS011;35394;54.282;10.070;2023-12-22T01:40:03;15.80;;;3.53;;
35028;SDS011;35394;54.282;10.070;2023-12-22T01:40:34;16.60;;;4.05;;
35028;SDS011;35394;54.282;10.070;2023-12-22T01:41:06;18.17;;;4.27;;
35028;SDS011;35394;54.282;10.070;2023-12-22T01:41:36;14.57;;;3.70;;
35028;SDS011;35394;54.282;10.070;2023-12-22T01:42:07;15.20;;;3.95;;
35028;SDS011;35394;54.282;10.070;2023-12-22T01:42:37;15.87;;;3.97;;
35028;SDS011;35394;54.282;10.070;2023-12-22T01:43:09;15.15;;;3.95;;
35028;SDS011;35394;54.282;10.070;2023-12-22T01:43:40;14.55;;;3.92;;
35028;SDS011;35394;54.282;10.070;2023-12-22T01:44:11;18.23;;;4.00;;
35028;SDS011;35394;54.282;10.070;2023-12-22T01:44:42;18.15;;;3.97;;
35028;SDS011;35394;54.282;10.070;2023-12-22T01:45:12;15.75;;;4.05;;
35028;SDS011;35394;54.282;10.070;2023-12-22T01:45:43;18.97;;;4.10;;
35028;SDS011;35394;54.282;10.070;2023-12-22T01:46:14;19.05;;;4.03;;
35028;SDS011;35394;54.282;10.070;2023-12-22T01:46:45;17.13;;;3.97;;
35028;SDS011;35394;54.282;10.070;2023-12-22T01:47:15;20.05;;;3.92;;
35028;SDS011;35394;54.282;10.070;2023-12-22T01:47:46;19.35;;;4.03;;
35028;SDS011;35394;54.282;10.070;2023-12-22T01:48:17;15.38;;;3.88;;
35028;SDS011;35394;54.282;10.070;2023-12-22T01:48:48;14.27;;;3.43;;
35028;SDS011;35394;54.282;10.070;2023-12-22T01:49:18;15.88;;;4.10;;
35028;SDS011;35394;54.282;10.070;2023-12-22T01:49:51;19.67;;;4.00;;
35028;SDS011;35394;54.282;10.070;2023-12-22T01:50:22;17.73;;;4.07;;
35028;SDS011;35394;54.282;10.070;2023-12-22T01:50:53;13.90;;;3.77;;
35028;SDS011;35394;54.282;10.070;2023-12-22T01:51:25;13.98;;;3.67;;
35028;SDS011;35394;54.282;10.070;2023-12-22T01:51:56;13.07;;;3.78;;
35028;SDS011;35394;54.282;10.070;2023-12-22T01:52:27;15.20;;;3.60;;
35028;SDS011;35394;54.282;10.070;2023-12-22T01:52:58;13.43;;;3.67;;
35028;SDS011;35394;54.282;10.070;2023-12-22T01:53:28;14.85;;;3.88;;
35028;SDS011;35394;54.282;10.070;2023-12-22T01:54:00;14.27;;;3.67;;
35028;SDS011;35394;54.282;10.070;2023-12-22T01:54:31;14.60;;;3.58;;
35028;SDS011;35394;54.282;10.070;2023-12-22T01:55:01;19.83;;;4.00;;
35028;SDS011;35394;54.282;10.070;2023-12-22T01:55:32;16.95;;;3.80;;
35028;SDS011;35394;54.282;10.070;2023-12-22T01:56:03;16.17;;;3.58;;
35028;SDS011;35394;54.282;10.070;2023-12-22T01:56:35;18.67;;;3.95;;
35028;SDS011;35394;54.282;10.070;2023-12-22T01:57:06;14.77;;;3.95;;
35028;SDS011;35394;54.282;10.070;2023-12-22T01:57:36;17.48;;;3.85;;
35028;SDS011;35394;54.282;10.070;2023-12-22T01:58:08;16.33;;;3.80;;
35028;SDS011;35394;54.282;10.070;2023-12-22T01:58:38;13.35;;;3.40;;
35028;SDS011;35394;54.282;10.070;2023-12-22T01:59:10;16.15;;;3.78;;
35028;SDS011;35394;54.282;10.070;2023-12-22T01:59:41;16.23;;;3.83;;
35028;SDS011;35394;54.282;10.070;2023-12-22T02:00:11;15.53;;;3.90;;
35028;SDS011;35394;54.282;10.070;2023-12-22T02:00:43;14.35;;;3.90;;
35028;SDS011;35394;54.282;10.070;2023-12-22T02:01:13;15.43;;;4.07;;
35028;SDS011;35394;54.282;10.070;2023-12-22T02:01:44;14.82;;;3.67;;
35028;SDS011;35394;54.282;10.070;2023-12-22T02:02:15;15.40;;;3.72;;
35028;SDS011;35394;54.282;10.070;2023-12-22T02:02:46;16.07;;;3.60;;
35028;SDS011;35394;54.282;10.070;2023-12-22T02:03:17;15.02;;;3.83;;
35028;SDS011;35394;54.282;10.070;2023-12-22T02:03:51;13.27;;;3.60;;
35028;SDS011;35394;54.282;10.070;2023-12-22T02:04:22;13.98;;;3.65;;
35028;SDS011;35394;54.282;10.070;2023-12-22T02:04:54;15.63;;;3.60;;
35028;SDS011;35394;54.282;10.070;2023-12-22T02:05:25;15.13;;;3.60;;
35028;SDS011;35394;54.282;10.070;2023-12-22T02:05:55;15.32;;;3.70;;
35028;SDS011;35394;54.282;10.070;2023-12-22T02:06:27;15.70;;;3.63;;
35028;SDS011;35394;54.282;10.070;2023-12-22T02:07:01;16.80;;;3.78;;
35028;SDS011;35394;54.282;10.070;2023-12-22T02:07:32;16.00;;;3.78;;
35028;SDS011;35394;54.282;10.070;2023-12-22T02:08:03;18.42;;;3.75;;
35028;SDS011;35394;54.282;10.070;2023-12-22T02:08:33;18.25;;;3.83;;
35028;SDS011;35394;54.282;10.070;2023-12-22T02:09:05;14.85;;;3.42;;
35028;SDS011;35394;54.282;10.070;2023-12-22T02:09:36;15.33;;;3.93;;
35028;SDS011;35394;54.282;10.070;2023-12-22T02:10:10;14.77;;;3.60;;
35028;SDS011;35394;54.282;10.070;2023-12-22T02:10:41;14.93;;;3.95;;
35028;SDS011;35394;54.282;10.070;2023-12-22T02:11:11;16.87;;;3.70;;
35028;SDS011;35394;54.282;10.070;2023-12-22T02:11:42;14.32;;;3.55;;
35028;SDS011;35394;54.282;10.070;2023-12-22T02:12:12;12.80;;;3.67;;
35028;SDS011;35394;54.282;10.070;2023-12-22T02:12:43;13.20;;;3.80;;
35028;SDS011;35394;54.282;10.070;2023-12-22T02:13:14;16.75;;;3.58;;
35028;SDS011;35394;54.282;10.070;2023-12-22T02:13:44;13.48;;;3.65;;
35028;SDS011;35394;54.282;10.070;2023-12-22T02:14:15;17.30;;;4.03;;
35028;SDS011;35394;54.282;10.070;2023-12-22T02:14:46;19.30;;;4.00;;
35028;SDS011;35394;54.282;10.070;2023-12-22T02:15:16;16.98;;;4.40;;
35028;SDS011;35394;54.282;10.070;2023-12-22T02:15:47;18.87;;;4.30;;
35028;SDS011;35394;54.282;10.070;2023-12-22T02:17:25;17.58;;;4.30;;
35028;SDS011;35394;54.282;10.070;2023-12-22T02:18:33;16.70;;;4.27;;
35028;SDS011;35394;54.282;10.070;2023-12-22T02:20:13;17.88;;;4.32;;
35028;SDS011;35394;54.282;10.070;2023-12-22T02:20:43;17.27;;;3.97;;
35028;SDS011;35394;54.282;10.070;2023-12-22T02:21:14;17.10;;;3.67;;
35028;SDS011;35394;54.282;10.070;2023-12-22T02:22:04;15.40;;;4.00;;
35028;SDS011;35394;54.282;10.070;2023-12-22T02:22:35;18.25;;;3.75;;
35028;SDS011;35394;54.282;10.070;2023-12-22T02:23:06;17.75;;;4.30;;
35028;SDS011;35394;54.282;10.070;2023-12-22T02:23:36;18.07;;;3.97;;
35028;SDS011;35394;54.282;10.070;2023-12-22T02:24:07;15.37;;;3.53;;
35028;SDS011;35394;54.282;10.070;2023-12-22T02:24:40;19.88;;;4.07;;
35028;SDS011;35394;54.282;10.070;2023-12-22T02:25:11;14.85;;;3.53;;
35028;SDS011;35394;54.282;10.070;2023-12-22T02:25:42;15.47;;;3.87;;
35028;SDS011;35394;54.282;10.070;2023-12-22T02:26:15;17.88;;;4.10;;
35028;SDS011;35394;54.282;10.070;2023-12-22T02:28:07;15.07;;;3.65;;
35028;SDS011;35394;54.282;10.070;2023-12-22T02:28:38;20.27;;;4.28;;
35028;SDS011;35394;54.282;10.070;2023-12-22T02:29:10;18.02;;;3.65;;
35028;SDS011;35394;54.282;10.070;2023-12-22T02:29:48;17.00;;;3.50;;
35028;SDS011;35394;54.282;10.070;2023-12-22T02:30:26;19.73;;;3.97;;
35028;SDS011;35394;54.282;10.070;2023-12-22T02:31:04;16.10;;;3.40;;
35028;SDS011;35394;54.282;10.070;2023-12-22T02:31:40;16.67;;;3.70;;
35028;SDS011;35394;54.282;10.070;2023-12-22T02:32:17;12.88;;;3.40;;
35028;SDS011;35394;54.282;10.070;2023-12-22T02:32:59;11.13;;;2.90;;
35028;SDS011;35394;54.282;10.070;2023-12-22T02:33:30;11.98;;;3.13;;
35028;SDS011;35394;54.282;10.070;2023-12-22T02:34:01;12.38;;;2.92;;
35028;SDS011;35394;54.282;10.070;2023-12-22T02:34:35;9.35;;;2.65;;
35028;SDS011;35394;54.282;10.070;2023-12-22T02:35:09;12.98;;;2.75;;
35028;SDS011;35394;54.282;10.070;2023-12-22T02:35:41;14.55;;;3.25;;
35028;SDS011;35394;54.282;10.070;2023-12-22T02:36:12;12.05;;;2.72;;
35028;SDS011;35394;54.282;10.070;2023-12-22T02:36:43;10.35;;;2.67;;
35028;SDS011;35394;54.282;10.070;2023-12-22T02:37:14;11.03;;;2.50;;
35028;SDS011;35394;54.282;10.070;2023-12-22T02:37:45;11.77;;;2.50;;
35028;SDS011;35394;54.282;10.070;2023-12-22T02:38:17;10.40;;;2.53;;
35028;SDS011;35394;54.282;10.070;2023-12-22T02:38:48;9.82;;;2.40;;
35028;SDS011;35394;54.282;10.070;2023-12-22T02:39:18;8.27;;;2.07;;
35028;SDS011;35394;54.282;10.070;2023-12-22T02:39:50;9.05;;;2.40;;
35028;SDS011;35394;54.282;10.070;2023-12-22T02:40:21;7.40;;;2.03;;
35028;SDS011;35394;54.282;10.070;2023-12-22T02:40:52;8.40;;;2.17;;
35028;SDS011;35394;54.282;10.070;2023-12-22T02:41:23;9.47;;;2.30;;
35028;SDS011;35394;54.282;10.070;2023-12-22T02:41:53;8.85;;;2.13;;
35028;SDS011;35394;54.282;10.070;2023-12-22T02:42:24;7.38;;;2.22;;
35028;SDS011;35394;54.282;10.070;2023-12-22T02:43:00;9.55;;;2.30;;
35028;SDS011;35394;54.282;10.070;2023-12-22T02:43:31;8.40;;;2.10;;
35028;SDS011;35394;54.282;10.070;2023-12-22T02:44:02;7.28;;;2.00;;
35028;SDS011;35394;54.282;10.070;2023-12-22T02:44:33;7.32;;;1.90;;
35028;SDS011;35394;54.282;10.070;2023-12-22T02:45:04;7.77;;;2.20;;
35028;SDS011;35394;54.282;10.070;2023-12-22T02:45:35;7.93;;;1.98;;
35028;SDS011;35394;54.282;10.070;2023-12-22T02:46:12;5.82;;;1.88;;
35028;SDS011;35394;54.282;10.070;2023-12-22T02:46:44;7.47;;;2.10;;
35028;SDS011;35394;54.282;10.070;2023-12-22T02:47:15;6.65;;;1.92;;
35028;SDS011;35394;54.282;10.070;2023-12-22T02:47:46;8.30;;;2.07;;
35028;SDS011;35394;54.282;10.070;2023-12-22T02:48:17;5.47;;;1.70;;
35028;SDS011;35394;54.282;10.070;2023-12-22T02:48:47;7.00;;;1.80;;
35028;SDS011;35394;54.282;10.070;2023-12-22T02:49:18;5.68;;;1.77;;
35028;SDS011;35394;54.282;10.070;2023-12-22T02:49:48;7.47;;;2.00;;
35028;SDS011;35394;54.282;10.070;2023-12-22T02:50:19;6.77;;;1.80;;
35028;SDS011;35394;54.282;10.070;2023-12-22T02:50:49;7.38;;;1.98;;
35028;SDS011;35394;54.282;10.070;2023-12-22T02:51:20;7.87;;;1.90;;
35028;SDS011;35394;54.282;10.070;2023-12-22T02:51:50;5.65;;;1.70;;
35028;SDS011;35394;54.282;10.070;2023-12-22T02:52:21;7.47;;;1.98;;
35028;SDS011;35394;54.282;10.070;2023-12-22T02:52:51;8.20;;;1.80;;
35028;SDS011;35394;54.282;10.070;2023-12-22T02:53:22;6.63;;;1.80;;
35028;SDS011;35394;54.282;10.070;2023-12-22T02:53:52;7.03;;;1.80;;
35028;SDS011;35394;54.282;10.070;2023-12-22T02:54:23;7.07;;;1.90;;
35028;SDS011;35394;54.282;10.070;2023-12-22T02:54:53;9.03;;;2.20;;
35028;SDS011;35394;54.282;10.070;2023-12-22T02:55:24;8.48;;;2.00;;
35028;SDS011;35394;54.282;10.070;2023-12-22T02:55:55;7.53;;;2.10;;
35028;SDS011;35394;54.282;10.070;2023-12-22T02:56:25;7.27;;;2.10;;
35028;SDS011;35394;54.282;10.070;2023-12-22T02:56:55;6.75;;;1.95;;
35028;SDS011;35394;54.282;10.070;2023-12-22T02:57:26;7.60;;;1.90;;
35028;SDS011;35394;54.282;10.070;2023-12-22T02:57:56;8.82;;;2.08;;
35028;SDS011;35394;54.282;10.070;2023-12-22T02:58:27;7.73;;;1.90;;
35028;SDS011;35394;54.282;10.070;2023-12-22T02:58:57;9.02;;;1.98;;
35028;SDS011;35394;54.282;10.070;2023-12-22T02:59:28;5.83;;;1.73;;
35028;SDS011;35394;54.282;10.070;2023-12-22T02:59:58;6.65;;;1.58;;
35028;SDS011;35394;54.282;10.070;2023-12-22T03:00:29;7.57;;;2.10;;
35028;SDS011;35394;54.282;10.070;2023-12-22T03:01:00;9.80;;;1.70;;
35028;SDS011;35394;54.282;10.070;2023-12-22T03:01:30;8.45;;;2.10;;
35028;SDS011;35394;54.282;10.070;2023-12-22T03:02:01;6.93;;;1.90;;
35028;SDS011;35394;54.282;10.070;2023-12-22T03:02:31;7.32;;;2.03;;
35028;SDS011;35394;54.282;10.070;2023-12-22T03:03:02;6.57;;;1.95;;
35028;SDS011;35394;54.282;10.070;2023-12-22T03:03:33;7.05;;;2.13;;
35028;SDS011;35394;54.282;10.070;2023-12-22T03:04:03;7.53;;;2.03;;
35028;SDS011;35394;54.282;10.070;2023-12-22T03:04:34;8.20;;;2.00;;
35028;SDS011;35394;54.282;10.070;2023-12-22T03:05:04;8.57;;;2.00;;
35028;SDS011;35394;54.282;10.070;2023-12-22T03:05:35;8.57;;;2.00;;
35028;SDS011;35394;54.282;10.070;2023-12-22T03:06:06;6.70;;;2.00;;
35028;SDS011;35394;54.282;10.070;2023-12-22T03:06:37;9.90;;;2.15;;